createdAt,value
2022-08-20T00:01:02.137Z,100.00
2022-08-20T00:03:09.551Z,100.00
2022-08-20T00:05:13.452Z,100.00
2022-08-20T00:07:16.645Z,100.00
2022-08-20T00:09:20.049Z,100.00
2022-08-20T00:11:26.970Z,100.00
2022-08-20T00:13:34.524Z,100.00
2022-08-20T00:15:40.235Z,100.00
2022-08-20T00:17:43.731Z,100.00
2022-08-20T00:19:47.116Z,100.00
2022-08-20T00:21:50.265Z,100.00
2022-08-20T00:23:57.598Z,100.00
2022-08-20T00:26:00.689Z,100.00
2022-08-20T00:28:04.678Z,100.00
2022-08-20T00:30:10.863Z,100.00
2022-08-20T00:32:15.480Z,100.00
2022-08-20T00:34:18.683Z,100.00
2022-08-20T00:36:22.399Z,100.00
2022-08-20T00:38:36.314Z,100.00
2022-08-20T00:40:44.666Z,100.00
2022-08-20T00:42:50.685Z,100.00
2022-08-20T00:44:55.077Z,100.00
2022-08-20T00:46:58.159Z,100.00
2022-08-20T00:49:06.043Z,100.00
2022-08-20T00:51:12.287Z,100.00
2022-08-20T00:53:16.125Z,100.00
2022-08-20T00:55:22.150Z,100.00
2022-08-20T00:57:59.842Z,100.00
2022-08-20T00:59:54.831Z,100.00
2022-08-20T01:01:59.601Z,100.00
2022-08-20T01:04:05.422Z,100.00
2022-08-20T01:06:09.473Z,100.00
2022-08-20T01:08:13.115Z,100.00
2022-08-20T01:10:19.308Z,100.00
2022-08-20T01:12:29.157Z,100.00
2022-08-20T01:14:38.429Z,100.00
2022-08-20T01:16:41.790Z,100.00
2022-08-20T01:18:46.555Z,100.00
2022-08-20T01:20:54.544Z,100.00
2022-08-20T01:23:24.450Z,100.00
2022-08-20T01:25:34.894Z,100.00
2022-08-20T01:27:53.230Z,100.00
2022-08-20T01:29:58.985Z,100.00
2022-08-20T01:32:02.596Z,100.00
2022-08-20T01:34:09.507Z,100.00
2022-08-20T01:36:13.959Z,100.00
2022-08-20T01:38:17.676Z,100.00
2022-08-20T01:40:30.303Z,100.00
2022-08-20T01:42:58.923Z,100.00
2022-08-20T01:45:05.576Z,100.00
2022-08-20T01:47:12.838Z,100.00
2022-08-20T01:49:23.464Z,100.00
2022-08-20T01:51:29.536Z,100.00
2022-08-20T01:53:35.123Z,100.00
2022-08-20T01:55:38.974Z,100.00
2022-08-20T01:57:42.502Z,100.00
2022-08-20T01:59:46.151Z,100.00
2022-08-20T02:01:51.148Z,100.00
2022-08-20T02:03:55.283Z,100.00
2022-08-20T02:06:01.167Z,100.00
2022-08-20T02:08:05.926Z,100.00
2022-08-20T02:10:11.544Z,100.00
2022-08-20T02:12:15.641Z,100.00
2022-08-20T02:14:18.539Z,100.00
2022-08-20T02:16:23.822Z,100.00
2022-08-20T02:18:28.344Z,100.00
2022-08-20T02:20:31.986Z,100.00
2022-08-20T02:22:40.935Z,100.00
2022-08-20T02:24:52.588Z,100.00
2022-08-20T02:26:56.305Z,100.00
2022-08-20T02:29:01.224Z,100.00
2022-08-20T02:31:08.373Z,100.00
2022-08-20T02:33:13.532Z,100.00
2022-08-20T02:35:18.776Z,100.00
2022-08-20T02:37:21.980Z,100.00
2022-08-20T02:39:25.943Z,100.00
2022-08-20T02:41:29.707Z,100.00
2022-08-20T02:43:32.756Z,100.00
2022-08-20T02:45:37.293Z,100.00
2022-08-20T02:47:40.544Z,100.00
2022-08-20T02:49:43.721Z,100.00
2022-08-20T02:51:48.725Z,100.00
2022-08-20T02:53:51.766Z,100.00
2022-08-20T02:55:54.933Z,100.00
2022-08-20T02:58:00.049Z,100.00
2022-08-20T03:00:04.125Z,100.00
2022-08-20T03:02:07.317Z,100.00
2022-08-20T03:04:10.491Z,100.00
2022-08-20T03:06:15.002Z,100.00
2022-08-20T03:08:19.763Z,100.00
2022-08-20T03:10:25.690Z,100.00
2022-08-20T03:12:29.360Z,100.00
2022-08-20T03:14:32.519Z,100.00
2022-08-20T03:16:35.645Z,100.00
2022-08-20T03:18:42.082Z,100.00
2022-08-20T03:20:46.166Z,100.00
2022-08-20T03:22:54.813Z,100.00
2022-08-20T03:24:59.505Z,100.00
2022-08-20T03:27:02.432Z,100.00
2022-08-20T03:29:06.086Z,100.00
2022-08-20T03:31:09.547Z,100.00
2022-08-20T03:33:16.472Z,100.00
2022-08-20T03:35:21.981Z,100.00
2022-08-20T03:37:25.383Z,100.00
2022-08-20T03:39:28.370Z,100.00
2022-08-20T03:41:33.254Z,100.00
2022-08-20T03:43:37.526Z,100.00
2022-08-20T03:45:44.095Z,100.00
2022-08-20T03:47:47.733Z,100.00
2022-08-20T03:49:51.676Z,100.00
2022-08-20T03:51:57.669Z,100.00
2022-08-20T03:54:01.460Z,100.00
2022-08-20T03:56:06.816Z,100.00
2022-08-20T03:58:13.628Z,100.00
2022-08-20T04:00:22.065Z,100.00
2022-08-20T04:02:25.706Z,100.00
2022-08-20T04:04:28.663Z,100.00
2022-08-20T04:06:31.724Z,100.00
2022-08-20T04:08:35.521Z,100.00
2022-08-20T04:10:38.981Z,100.00
2022-08-20T04:12:52.750Z,100.00
2022-08-20T04:14:58.547Z,100.00
2022-08-20T04:17:06.131Z,100.00
2022-08-20T04:19:09.433Z,100.00
2022-08-20T04:21:12.811Z,100.00
2022-08-20T04:23:16.075Z,100.00
2022-08-20T04:25:19.255Z,100.00
2022-08-20T04:27:27.018Z,100.00
2022-08-20T04:29:32.111Z,100.00
2022-08-20T04:31:37.056Z,100.00
2022-08-20T04:33:39.969Z,100.00
2022-08-20T04:35:42.874Z,100.00
2022-08-20T04:37:47.525Z,100.00
2022-08-20T04:40:05.625Z,100.00
2022-08-20T04:42:08.912Z,100.00
2022-08-20T04:44:12.595Z,100.00
2022-08-20T04:46:16.018Z,100.00
2022-08-20T04:48:23.889Z,100.00
2022-08-20T04:50:27.281Z,100.00
2022-08-20T04:52:32.960Z,100.00
2022-08-20T04:54:35.894Z,100.00
2022-08-20T04:56:39.782Z,100.00
2022-08-20T04:58:47.783Z,100.00
2022-08-20T05:00:53.123Z,100.00
2022-08-20T05:02:56.391Z,100.00
2022-08-20T05:05:00.631Z,100.00
2022-08-20T05:07:03.874Z,100.00
2022-08-20T05:09:07.029Z,100.00
2022-08-20T05:11:34.024Z,100.00
2022-08-20T05:13:35.167Z,100.00
2022-08-20T05:15:39.838Z,100.00
2022-08-20T05:17:44.456Z,100.00
2022-08-20T05:19:47.513Z,100.00
2022-08-20T05:21:53.644Z,100.00
2022-08-20T05:23:56.727Z,100.00
2022-08-20T05:26:00.290Z,100.00
2022-08-20T05:28:09.386Z,100.00
2022-08-20T05:30:13.476Z,100.00
2022-08-20T05:32:16.912Z,100.00
2022-08-20T05:34:19.795Z,100.00
2022-08-20T05:36:22.574Z,100.00
2022-08-20T05:38:28.861Z,100.00
2022-08-20T05:40:31.843Z,100.00
2022-08-20T05:42:34.767Z,100.00
2022-08-20T05:44:37.893Z,100.00
2022-08-20T05:46:42.713Z,100.00
2022-08-20T05:48:45.672Z,100.00
2022-08-20T05:50:50.487Z,100.00
2022-08-20T05:52:53.917Z,100.00
2022-08-20T05:54:58.262Z,100.00
2022-08-20T05:57:01.238Z,100.00
2022-08-20T05:59:07.843Z,100.00
2022-08-20T06:01:11.074Z,100.00
2022-08-20T06:03:31.727Z,100.00
2022-08-20T06:05:37.254Z,100.00
2022-08-20T06:07:40.614Z,100.00
2022-08-20T06:09:44.475Z,100.00
2022-08-20T06:11:48.920Z,100.00
2022-08-20T06:13:52.062Z,100.00
2022-08-20T06:15:55.015Z,100.00
2022-08-20T06:17:58.839Z,100.00
2022-08-20T06:20:04.115Z,100.00
2022-08-20T06:22:20.314Z,100.00
2022-08-20T06:24:29.175Z,100.00
2022-08-20T06:26:34.566Z,100.00
2022-08-20T06:28:38.979Z,100.00
2022-08-20T06:30:41.964Z,100.00
2022-08-20T06:32:45.671Z,100.00
2022-08-20T06:34:50.454Z,100.00
2022-08-20T06:36:53.861Z,100.00
2022-08-20T06:38:58.306Z,100.00
2022-08-20T06:41:01.290Z,100.00
2022-08-20T06:43:04.225Z,100.00
2022-08-20T06:45:10.022Z,100.00
2022-08-20T06:47:15.176Z,100.00
2022-08-20T06:49:18.766Z,100.00
2022-08-20T06:51:21.845Z,100.00
2022-08-20T06:53:25.420Z,100.00
2022-08-20T06:55:30.460Z,100.00
2022-08-20T06:57:33.287Z,100.00
2022-08-20T06:59:36.616Z,100.00
2022-08-20T07:01:41.078Z,100.00
2022-08-20T07:03:55.577Z,100.00
2022-08-20T07:05:59.526Z,100.00
2022-08-20T07:08:03.008Z,100.00
2022-08-20T07:10:08.031Z,100.00
2022-08-20T07:12:11.408Z,100.00
2022-08-20T07:14:14.456Z,100.00
2022-08-20T07:16:17.502Z,100.00
2022-08-20T07:18:28.780Z,100.00
2022-08-20T07:20:34.799Z,100.00
2022-08-20T07:22:37.709Z,100.00
2022-08-20T07:24:42.013Z,100.00
2022-08-20T07:26:46.134Z,100.00
2022-08-20T07:28:49.257Z,100.00
2022-08-20T07:31:13.364Z,100.00
2022-08-20T07:33:17.517Z,100.00
2022-08-20T07:35:22.845Z,100.00
2022-08-20T07:37:25.862Z,100.00
2022-08-20T07:39:31.113Z,100.00
2022-08-20T07:41:34.413Z,100.00
2022-08-20T07:43:39.495Z,100.00
2022-08-20T07:45:43.094Z,100.00
2022-08-20T07:47:54.255Z,100.00
2022-08-20T07:49:57.232Z,100.00
2022-08-20T07:52:01.566Z,100.00
2022-08-20T07:54:06.165Z,100.00
2022-08-20T07:56:12.881Z,100.00
2022-08-20T07:58:19.729Z,100.00
2022-08-20T08:00:24.929Z,100.00
2022-08-20T08:02:28.451Z,100.00
2022-08-20T08:04:31.316Z,100.00
2022-08-20T08:06:34.557Z,100.00
2022-08-20T08:08:41.362Z,100.00
2022-08-20T08:10:47.595Z,100.00
2022-08-20T08:13:06.843Z,100.00
2022-08-20T08:15:14.204Z,100.00
2022-08-20T08:17:19.045Z,100.00
2022-08-20T08:19:22.939Z,100.00
2022-08-20T08:21:26.145Z,100.00
2022-08-20T08:23:32.253Z,100.00
2022-08-20T08:25:36.949Z,100.00
2022-08-20T08:27:40.124Z,100.00
2022-08-20T08:29:43.243Z,100.00
2022-08-20T08:31:46.759Z,100.00
2022-08-20T08:33:49.832Z,100.00
2022-08-20T08:35:54.261Z,100.00
2022-08-20T08:37:57.068Z,100.00
2022-08-20T08:40:00.565Z,98.68
2022-08-20T08:42:21.954Z,97.39
2022-08-20T08:44:28.725Z,97.33
2022-08-20T08:46:33.541Z,97.87
2022-08-20T08:48:43.167Z,96.08
2022-08-20T08:50:53.927Z,94.05
2022-08-20T08:53:00.452Z,94.07
2022-08-20T08:55:07.803Z,91.48
2022-08-20T08:57:12.263Z,89.11
2022-08-20T08:59:15.271Z,87.76
2022-08-20T09:01:56.621Z,85.89
2022-08-20T09:03:48.517Z,87.53
2022-08-20T09:05:54.049Z,86.28
2022-08-20T09:07:57.526Z,89.65
2022-08-20T09:10:02.336Z,89.74
2022-08-20T09:12:08.678Z,89.04
2022-08-20T09:14:12.973Z,92.00
2022-08-20T09:16:16.265Z,95.57
2022-08-20T09:18:19.122Z,92.80
2022-08-20T09:20:25.965Z,92.32
2022-08-20T09:22:30.874Z,92.98
2022-08-20T09:24:33.693Z,93.56
2022-08-20T09:26:39.128Z,92.52
2022-08-20T09:28:42.175Z,90.02
2022-08-20T09:30:46.702Z,91.28
2022-08-20T09:32:50.079Z,90.19
2022-08-20T09:34:56.916Z,88.15
2022-08-20T09:36:59.763Z,91.26
2022-08-20T09:39:03.373Z,88.08
2022-08-20T09:41:06.669Z,85.34
2022-08-20T09:43:09.922Z,83.81
2022-08-20T09:45:14.142Z,83.74
2022-08-20T09:47:18.385Z,83.16
2022-08-20T09:49:21.259Z,80.72
2022-08-20T09:51:24.406Z,78.04
2022-08-20T09:53:27.370Z,76.72
2022-08-20T09:55:35.783Z,78.43
2022-08-20T09:57:38.684Z,79.87
2022-08-20T09:59:41.559Z,79.27
2022-08-20T10:01:44.420Z,81.33
2022-08-20T10:03:50.256Z,79.81
2022-08-20T10:05:53.073Z,78.95
2022-08-20T10:07:55.973Z,82.32
2022-08-20T10:09:58.826Z,82.84
2022-08-20T10:12:01.522Z,85.29
2022-08-20T10:14:04.315Z,86.96
2022-08-20T10:16:07.963Z,85.80
2022-08-20T10:18:12.315Z,87.14
2022-08-20T10:20:18.376Z,89.04
2022-08-20T10:22:21.290Z,89.39
2022-08-20T10:24:25.122Z,86.01
2022-08-20T10:26:28.082Z,84.39
2022-08-20T10:28:31.113Z,85.94
2022-08-20T10:30:34.040Z,85.83
2022-08-20T10:32:38.236Z,85.86
2022-08-20T10:34:41.621Z,84.78
2022-08-20T10:36:46.685Z,85.22
2022-08-20T10:38:49.650Z,84.70
2022-08-20T10:40:52.775Z,88.78
2022-08-20T10:42:55.653Z,88.97
2022-08-20T10:44:58.498Z,89.96
2022-08-20T10:47:15.084Z,92.53
2022-08-20T10:49:18.039Z,93.72
2022-08-20T10:51:21.052Z,96.06
2022-08-20T10:53:36.837Z,95.89
2022-08-20T10:55:39.804Z,96.10
2022-08-20T10:57:43.707Z,98.76
2022-08-20T10:59:48.849Z,99.86
2022-08-20T11:01:51.738Z,100.00
2022-08-20T11:03:54.504Z,100.00
2022-08-20T11:05:57.229Z,100.00
2022-08-20T11:08:03.765Z,100.00
2022-08-20T11:10:13.588Z,100.00
2022-08-20T11:12:18.347Z,98.05
2022-08-20T11:14:21.083Z,97.37
2022-08-20T11:16:23.849Z,97.03
2022-08-20T11:18:26.607Z,96.74
2022-08-20T11:20:31.488Z,96.94
2022-08-20T11:22:34.500Z,98.03
2022-08-20T11:24:37.794Z,97.75
2022-08-20T11:26:41.907Z,97.42
2022-08-20T11:28:44.835Z,95.50
2022-08-20T11:30:49.869Z,94.57
2022-08-20T11:32:52.975Z,97.69
2022-08-20T11:34:55.820Z,98.31
2022-08-20T11:36:59.743Z,99.96
2022-08-20T11:39:02.603Z,100.00
2022-08-20T11:41:05.469Z,100.00
2022-08-20T11:43:17.992Z,100.00
2022-08-20T11:45:20.933Z,100.00
2022-08-20T11:47:26.344Z,100.00
2022-08-20T11:49:29.233Z,99.03
2022-08-20T11:51:32.017Z,97.71
2022-08-20T11:53:52.118Z,97.33
2022-08-20T11:55:54.880Z,95.24
2022-08-20T11:58:00.466Z,94.94
2022-08-20T12:00:08.825Z,90.93
2022-08-20T12:02:12.539Z,89.75
2022-08-20T12:04:15.490Z,89.86
2022-08-20T12:06:18.404Z,89.74
2022-08-20T12:08:26.442Z,88.08
2022-08-20T12:10:30.974Z,85.85
2022-08-20T12:12:34.079Z,86.30
2022-08-20T12:14:37.166Z,83.27
2022-08-20T12:16:41.367Z,84.04
2022-08-20T12:18:44.194Z,84.19
2022-08-20T12:20:47.414Z,84.58
2022-08-20T12:22:54.021Z,88.90
2022-08-20T12:24:57.276Z,87.32
2022-08-20T12:27:11.250Z,86.99
2022-08-20T12:29:14.248Z,85.08
2022-08-20T12:31:17.115Z,83.79
2022-08-20T12:33:21.299Z,83.19
2022-08-20T12:35:24.591Z,82.20
2022-08-20T12:37:30.986Z,78.04
2022-08-20T12:39:34.639Z,78.35
2022-08-20T12:41:37.451Z,78.91
2022-08-20T12:43:40.180Z,76.83
2022-08-20T12:45:43.031Z,78.26
2022-08-20T12:47:47.724Z,78.98
2022-08-20T12:49:54.815Z,80.27
2022-08-20T12:51:57.764Z,76.45
2022-08-20T12:54:00.528Z,73.60
2022-08-20T12:56:05.089Z,68.99
2022-08-20T12:58:10.552Z,72.55
2022-08-20T13:00:17.085Z,70.83
2022-08-20T13:02:21.372Z,73.17
2022-08-20T13:04:24.883Z,71.02
2022-08-20T13:06:29.266Z,67.94
2022-08-20T13:08:32.200Z,64.84
2022-08-20T13:10:38.127Z,66.80
2022-08-20T13:12:41.076Z,65.80
2022-08-20T13:14:44.498Z,60.67
2022-08-20T13:16:47.665Z,62.13
2022-08-20T13:18:56.169Z,59.17
2022-08-20T13:20:58.961Z,60.57
2022-08-20T13:23:04.341Z,59.22
2022-08-20T13:25:08.462Z,62.97
2022-08-20T13:27:13.495Z,67.43
2022-08-20T13:29:17.761Z,67.04
2022-08-20T13:31:20.611Z,61.11
2022-08-20T13:33:26.558Z,59.33
2022-08-20T13:35:30.399Z,60.17
2022-08-20T13:37:33.266Z,57.11
2022-08-20T13:39:39.783Z,59.04
2022-08-20T13:41:43.625Z,56.91
2022-08-20T13:43:46.584Z,57.92
2022-08-20T13:45:49.397Z,53.49
2022-08-20T13:47:55.136Z,52.14
2022-08-20T13:50:01.125Z,51.19
2022-08-20T13:52:04.424Z,52.17
2022-08-20T13:54:07.286Z,54.23
2022-08-20T13:56:14.964Z,53.04
2022-08-20T13:58:18.490Z,53.19
2022-08-20T14:00:31.854Z,57.67
2022-08-20T14:02:35.432Z,50.63
2022-08-20T14:04:39.048Z,47.51
2022-08-20T14:06:45.098Z,46.42
2022-08-20T14:08:48.027Z,49.36
2022-08-20T14:10:52.182Z,51.24
2022-08-20T14:12:56.522Z,51.83
2022-08-20T14:14:59.649Z,50.12
2022-08-20T14:17:39.626Z,53.35
2022-08-20T14:19:38.660Z,54.71
2022-08-20T14:21:41.466Z,56.00
2022-08-20T14:23:44.689Z,53.87
2022-08-20T14:25:50.129Z,51.67
2022-08-20T14:27:53.378Z,48.58
2022-08-20T14:29:58.371Z,51.06
2022-08-20T14:32:01.395Z,50.68
2022-08-20T14:34:05.232Z,51.46
2022-08-20T14:36:08.471Z,51.98
2022-08-20T14:38:11.389Z,53.20
2022-08-20T14:40:16.510Z,55.71
2022-08-20T14:42:20.617Z,51.40
2022-08-20T14:44:23.668Z,52.28
2022-08-20T14:46:27.909Z,51.74
2022-08-20T14:48:33.902Z,53.21
2022-08-20T14:50:37.455Z,51.60
2022-08-20T14:52:41.192Z,55.16
2022-08-20T14:54:44.824Z,54.85
2022-08-20T14:56:47.649Z,53.14
2022-08-20T14:58:50.657Z,56.55
2022-08-20T15:00:53.422Z,58.37
2022-08-20T15:02:58.143Z,57.82
2022-08-20T15:05:01.513Z,56.31
2022-08-20T15:07:10.800Z,52.35
2022-08-20T15:09:14.319Z,49.07
2022-08-20T15:11:17.172Z,45.87
2022-08-20T15:13:20.027Z,43.15
2022-08-20T15:15:24.016Z,43.72
2022-08-20T15:17:31.020Z,43.33
2022-08-20T15:19:36.161Z,42.73
2022-08-20T15:21:45.637Z,41.76
2022-08-20T15:23:49.139Z,42.58
2022-08-20T15:25:51.941Z,41.22
2022-08-20T15:28:00.088Z,40.67
2022-08-20T15:30:07.999Z,41.26
2022-08-20T15:32:10.829Z,41.11
2022-08-20T15:34:17.938Z,38.81
2022-08-20T15:36:22.402Z,39.26
2022-08-20T15:38:25.227Z,43.86
2022-08-20T15:40:30.969Z,45.44
2022-08-20T15:42:33.817Z,43.74
2022-08-20T15:44:38.670Z,43.21
2022-08-20T15:46:41.722Z,44.24
2022-08-20T15:48:46.928Z,44.83
2022-08-20T15:51:03.878Z,45.44
2022-08-20T15:53:14.161Z,42.26
2022-08-20T15:55:17.678Z,41.59
2022-08-20T15:57:37.964Z,42.27
2022-08-20T15:59:55.135Z,41.42
2022-08-20T16:02:13.182Z,38.55
2022-08-20T16:04:33.108Z,39.24
2022-08-20T16:06:36.730Z,39.42
2022-08-20T16:08:57.655Z,36.91
2022-08-20T16:11:13.303Z,34.47
2022-08-20T16:13:28.978Z,35.31
2022-08-20T16:15:34.965Z,34.47
2022-08-20T16:17:41.973Z,32.80
2022-08-20T16:19:53.543Z,32.31
2022-08-20T16:21:59.687Z,32.13
2022-08-20T16:24:04.726Z,32.50
2022-08-20T16:26:23.963Z,32.06
2022-08-20T16:28:32.020Z,32.23
2022-08-20T16:30:41.808Z,31.06
2022-08-20T16:32:47.097Z,32.98
2022-08-20T16:34:57.801Z,31.75
2022-08-20T16:37:06.750Z,31.83
2022-08-20T16:39:18.000Z,31.32
2022-08-20T16:41:26.897Z,30.60
2022-08-20T16:43:34.777Z,30.73
2022-08-20T16:45:51.093Z,30.38
2022-08-20T16:47:58.144Z,29.59
2022-08-20T16:50:04.585Z,30.93
2022-08-20T16:52:07.453Z,31.62
2022-08-20T16:54:12.835Z,30.51
2022-08-20T16:56:15.726Z,31.53
2022-08-20T16:58:18.663Z,31.37
2022-08-20T17:00:29.365Z,30.68
2022-08-20T17:02:32.152Z,31.19
2022-08-20T17:04:35.394Z,30.54
2022-08-20T17:06:41.563Z,29.95
2022-08-20T17:08:50.277Z,28.83
2022-08-20T17:10:58.915Z,28.21
2022-08-20T17:13:05.782Z,28.26
2022-08-20T17:15:18.656Z,28.18
2022-08-20T17:17:24.359Z,28.29
2022-08-20T17:19:29.815Z,27.92
2022-08-20T17:21:35.612Z,28.30
2022-08-20T17:23:55.249Z,28.45
2022-08-20T17:26:05.033Z,28.32
2022-08-20T17:28:16.348Z,27.92
2022-08-20T17:30:24.921Z,28.26
2022-08-20T17:32:30.483Z,27.57
2022-08-20T17:34:43.735Z,26.57
2022-08-20T17:36:54.591Z,27.93
2022-08-20T17:38:59.203Z,27.67
2022-08-20T17:41:08.319Z,29.24
2022-08-20T17:43:24.544Z,29.05
2022-08-20T17:45:33.112Z,28.54
2022-08-20T17:47:39.691Z,29.34
2022-08-20T17:49:53.282Z,30.60
2022-08-20T17:52:12.797Z,30.76
2022-08-20T17:54:22.580Z,31.58
2022-08-20T17:56:30.252Z,31.99
2022-08-20T17:58:40.313Z,33.05
2022-08-20T18:00:57.261Z,33.80
2022-08-20T18:03:01.957Z,33.93
2022-08-20T18:05:10.115Z,34.25
2022-08-20T18:07:20.344Z,35.17
2022-08-20T18:09:29.862Z,36.86
2022-08-20T18:11:44.963Z,37.38
2022-08-20T18:14:00.397Z,38.43
2022-08-20T18:16:04.432Z,40.10
2022-08-20T18:18:29.267Z,40.31
2022-08-20T18:20:43.976Z,40.72
2022-08-20T18:22:52.056Z,41.62
2022-08-20T18:25:01.690Z,41.69
2022-08-20T18:27:12.572Z,42.47
2022-08-20T18:29:19.402Z,42.91
2022-08-20T18:31:31.954Z,43.53
2022-08-20T18:33:36.927Z,45.18
2022-08-20T18:35:45.805Z,44.81
2022-08-20T18:37:49.838Z,45.18
2022-08-20T18:39:52.991Z,46.73
2022-08-20T18:42:01.062Z,47.37
2022-08-20T18:44:09.207Z,48.99
2022-08-20T18:46:15.495Z,48.37
2022-08-20T18:48:23.174Z,48.84
2022-08-20T18:50:33.222Z,49.46
2022-08-20T18:52:38.664Z,49.56
2022-08-20T18:54:49.395Z,49.37
2022-08-20T18:57:03.906Z,49.81
2022-08-20T18:59:14.398Z,49.94
2022-08-20T19:01:17.978Z,51.17
2022-08-20T19:03:24.595Z,51.52
2022-08-20T19:05:31.585Z,51.70
2022-08-20T19:07:47.892Z,52.58
2022-08-20T19:10:11.001Z,54.63
2022-08-20T19:13:16.214Z,53.76
2022-08-20T19:15:23.862Z,53.65
2022-08-20T19:17:45.951Z,54.53
2022-08-20T19:20:00.332Z,55.54
2022-08-20T19:22:04.455Z,56.71
2022-08-20T19:24:09.086Z,56.88
2022-08-20T19:26:19.727Z,58.15
2022-08-20T19:28:32.835Z,59.55
2022-08-20T19:30:43.440Z,62.06
2022-08-20T19:32:53.256Z,60.14
2022-08-20T19:34:58.668Z,60.48
2022-08-20T19:37:09.048Z,60.89
2022-08-20T19:39:28.598Z,60.24
2022-08-20T19:41:35.893Z,59.93
2022-08-20T19:43:44.060Z,60.45
2022-08-20T19:45:51.613Z,62.83
2022-08-20T19:48:04.916Z,63.22
2022-08-20T19:50:17.225Z,65.53
2022-08-20T19:52:29.914Z,63.87
2022-08-20T19:54:32.823Z,64.83
2022-08-20T19:56:42.060Z,64.32
2022-08-20T19:58:45.709Z,64.39
2022-08-20T20:00:52.243Z,65.40
2022-08-20T20:02:55.990Z,63.27
2022-08-20T20:04:58.914Z,66.02
2022-08-20T20:07:01.825Z,65.80
2022-08-20T20:09:07.992Z,66.77
2022-08-20T20:11:18.277Z,67.44
2022-08-20T20:13:23.551Z,68.39
2022-08-20T20:15:26.488Z,69.15
2022-08-20T20:17:34.618Z,70.99
2022-08-20T20:19:47.091Z,70.23
2022-08-20T20:21:52.814Z,69.21
2022-08-20T20:23:59.528Z,71.95
2022-08-20T20:26:05.387Z,69.30
2022-08-20T20:28:12.745Z,68.59
2022-08-20T20:30:21.713Z,70.51
2022-08-20T20:32:26.067Z,71.38
2022-08-20T20:34:32.425Z,73.35
2022-08-20T20:36:38.367Z,70.49
2022-08-20T20:39:00.128Z,69.82
2022-08-20T20:41:04.772Z,68.88
2022-08-20T20:43:10.662Z,68.99
2022-08-20T20:45:18.478Z,69.99
2022-08-20T20:47:24.277Z,68.67
2022-08-20T20:49:30.753Z,68.88
2022-08-20T20:51:37.273Z,67.87
2022-08-20T20:53:53.182Z,68.36
2022-08-20T20:55:58.725Z,68.50
2022-08-20T20:58:02.588Z,69.55
2022-08-20T21:00:08.552Z,67.66
2022-08-20T21:02:11.404Z,69.71
2022-08-20T21:04:14.268Z,71.00
2022-08-20T21:06:26.995Z,69.82
2022-08-20T21:08:29.824Z,67.82
2022-08-20T21:10:34.902Z,69.32
2022-08-20T21:12:37.693Z,70.62
2022-08-20T21:14:40.751Z,69.01
2022-08-20T21:16:44.363Z,68.70
2022-08-20T21:18:47.879Z,70.49
2022-08-20T21:20:52.510Z,71.37
2022-08-20T21:22:58.386Z,72.95
2022-08-20T21:25:01.465Z,71.54
2022-08-20T21:27:04.380Z,72.41
2022-08-20T21:29:10.396Z,71.93
2022-08-20T21:31:13.328Z,71.81
2022-08-20T21:33:16.170Z,71.38
2022-08-20T21:35:19.370Z,72.53
2022-08-20T21:37:22.336Z,72.65
2022-08-20T21:39:26.598Z,73.63
2022-08-20T21:41:31.018Z,71.29
2022-08-20T21:43:36.368Z,73.56
2022-08-20T21:45:39.931Z,72.81
2022-08-20T21:47:46.845Z,73.91
2022-08-20T21:49:52.595Z,74.25
2022-08-20T21:51:56.187Z,74.76
2022-08-20T21:53:58.994Z,77.59
2022-08-20T21:56:03.513Z,76.91
2022-08-20T21:58:06.808Z,76.28
2022-08-20T22:00:17.476Z,75.04
2022-08-20T22:02:21.730Z,73.97
2022-08-20T22:04:33.477Z,74.92
2022-08-20T22:06:38.171Z,76.70
2022-08-20T22:08:41.388Z,76.02
2022-08-20T22:10:44.267Z,75.57
2022-08-20T22:12:48.406Z,76.10
2022-08-20T22:14:52.194Z,78.00
2022-08-20T22:16:55.264Z,78.35
2022-08-20T22:18:58.053Z,79.98
2022-08-20T22:21:00.959Z,79.15
2022-08-20T22:23:05.263Z,81.06
2022-08-20T22:25:10.276Z,83.45
2022-08-20T22:27:15.833Z,80.50
2022-08-20T22:29:19.974Z,81.04
2022-08-20T22:31:27.832Z,81.87
2022-08-20T22:33:32.862Z,82.54
2022-08-20T22:35:36.113Z,81.98
2022-08-20T22:37:38.987Z,83.60
2022-08-20T22:39:42.222Z,83.26
2022-08-20T22:41:45.048Z,83.63
2022-08-20T22:43:56.546Z,82.18
2022-08-20T22:46:03.316Z,82.64
2022-08-20T22:48:07.836Z,82.34
2022-08-20T22:50:12.018Z,80.19
2022-08-20T22:52:14.822Z,79.29
2022-08-20T22:54:21.521Z,79.47
2022-08-20T22:56:24.377Z,77.11
2022-08-20T22:58:30.980Z,74.73
2022-08-20T23:00:34.916Z,75.53
2022-08-20T23:02:39.825Z,75.05
2022-08-20T23:04:42.957Z,75.32
2022-08-20T23:06:45.989Z,74.69
2022-08-20T23:08:48.857Z,75.95
2022-08-20T23:10:51.992Z,76.08
2022-08-20T23:12:55.434Z,75.59
2022-08-20T23:14:58.310Z,75.16
2022-08-20T23:17:04.241Z,76.75
2022-08-20T23:19:21.798Z,75.97
2022-08-20T23:21:24.753Z,76.12
2022-08-20T23:23:28.432Z,76.23
2022-08-20T23:25:31.463Z,77.88
2022-08-20T23:27:36.850Z,77.29
2022-08-20T23:29:39.737Z,79.10
2022-08-20T23:31:43.715Z,81.08
2022-08-20T23:33:46.541Z,81.74
2022-08-20T23:35:51.062Z,83.74
2022-08-20T23:37:56.871Z,84.66
2022-08-20T23:39:59.721Z,82.48
2022-08-20T23:42:03.116Z,81.88
2022-08-20T23:44:06.279Z,82.71
2022-08-20T23:46:32.871Z,84.30
2022-08-20T23:48:35.913Z,88.70
2022-08-20T23:50:38.829Z,91.17
2022-08-20T23:52:43.263Z,89.49
2022-08-20T23:54:46.077Z,87.01
2022-08-20T23:56:49.484Z,84.03
2022-08-20T23:58:52.456Z,82.33
